Time;durP1;ratioP1;P1;durP2;ratioP2;P2;SDS_P1;SDS_P2;PMS_P1;PMS_P2;Temp;Humidity;BMP_temperature;BMP_pressure;BME280_temperature;BME280_humidity;BME280_pressure;Samples;Min_cycle;Max_cycle;Signal;HPM_P1;HPM_P2
2022/12/09 00:00:08;;;;;;;12.23;7.10;;;2.50;99.90;;;;;;8438702;27;20294;-75
2022/12/09 00:04:09;;;;;;;11.20;6.70;;;2.50;99.90;;;;;;8448572;27;20179;-77
2022/12/09 00:08:10;;;;;;;10.50;7.60;;;2.50;99.90;;;;;;8438451;27;20207;-77
2022/12/09 00:12:10;;;;;;;9.07;6.47;;;2.50;99.90;;;;;;8438298;27;20233;-80
2022/12/09 00:16:13;;;;;;;9.07;5.97;;;2.50;99.90;;;;;;8460290;27;20197;-77
2022/12/09 00:20:14;;;;;;;9.43;6.30;;;2.50;99.90;;;;;;8438011;27;20188;-75
2022/12/09 00:24:14;;;;;;;7.83;6.10;;;2.50;99.90;;;;;;8458195;27;20195;-78
2022/12/09 00:28:18;;;;;;;9.17;6.30;;;2.50;1.00;;;;;;8439965;27;20256;-75
2022/12/09 00:32:19;;;;;;;10.03;6.47;;;2.50;1.00;;;;;;8427179;27;20240;-75
2022/12/09 00:36:22;;;;;;;7.47;5.70;;;2.50;30.40;;;;;;8454850;27;20180;-75
2022/12/09 00:40:22;;;;;;;8.03;5.17;;;2.50;99.90;;;;;;8442216;27;20289;-79
2022/12/09 00:44:23;;;;;;;8.77;6.20;;;2.40;99.90;;;;;;8438464;27;20199;-78
2022/12/09 00:48:25;;;;;;;7.87;5.30;;;2.40;99.90;;;;;;8431568;27;20184;-77
2022/12/09 00:52:26;;;;;;;7.40;5.57;;;2.40;99.90;;;;;;8439544;27;20212;-78
2022/12/09 00:56:28;;;;;;;8.30;5.83;;;2.40;99.90;;;;;;8434569;27;20186;-75
2022/12/09 01:00:29;;;;;;;9.30;6.53;;;2.50;99.90;;;;;;8446691;27;20189;-79
2022/12/09 01:04:30;;;;;;;9.93;6.23;;;2.50;1.00;;;;;;8434984;27;20184;-75
2022/12/09 01:08:31;;;;;;;8.07;5.83;;;2.50;99.90;;;;;;8434146;27;20211;-78
2022/12/09 01:12:33;;;;;;;10.13;5.83;;;2.50;99.90;;;;;;8442700;27;20265;-79
2022/12/09 01:16:34;;;;;;;8.83;5.93;;;2.50;99.90;;;;;;8433971;27;20206;-78
2022/12/09 01:20:35;;;;;;;7.63;5.53;;;2.50;1.00;;;;;;8431398;27;20235;-77
2022/12/09 01:24:36;;;;;;;8.07;5.13;;;2.40;1.00;;;;;;8438935;27;20508;-76
2022/12/09 01:28:38;;;;;;;17.33;11.30;;;2.40;1.00;;;;;;8437383;27;20588;-76
2022/12/09 01:32:40;;;;;;;22.77;12.83;;;2.50;1.00;;;;;;8440822;27;20253;-77
2022/12/09 01:36:40;;;;;;;21.33;12.70;;;2.50;1.00;;;;;;8430728;28;20250;-75
2022/12/09 01:40:45;;;;;;;16.73;11.17;;;2.50;17.50;;;;;;8431301;28;20323;-76
2022/12/09 01:45:20;;;;;;;16.30;10.43;;;2.50;99.90;;;;;;8453746;28;20179;-77
2022/12/09 01:49:33;;;;;;;12.47;8.13;;;2.50;89.70;;;;;;8452808;28;20278;-78
2022/12/09 01:53:36;;;;;;;12.33;7.30;;;2.40;99.90;;;;;;8432627;28;20208;-78
2022/12/09 01:57:38;;;;;;;15.33;10.10;;;2.40;99.90;;;;;;8445499;28;20227;-79
2022/12/09 02:01:44;;;;;;;24.00;15.53;;;2.40;99.90;;;;;;8434336;28;20183;-75
2022/12/09 02:05:46;;;;;;;29.93;18.50;;;2.40;1.00;;;;;;8453495;28;20211;-75
2022/12/09 02:09:51;;;;;;;23.97;13.17;;;2.40;44.10;;;;;;8438997;28;20179;-78
2022/12/09 02:14:03;;;;;;;15.23;9.80;;;2.40;99.90;;;;;;8441767;28;20203;-77
2022/12/09 02:18:20;;;;;;;14.67;9.13;;;2.30;1.00;;;;;;8432808;28;20172;-77
2022/12/09 02:22:28;;;;;;;12.07;7.80;;;2.30;72.30;;;;;;8441869;28;20195;-75
2022/12/09 02:26:31;;;;;;;8.57;6.20;;;2.30;99.90;;;;;;8456288;28;20219;-76
2022/12/09 02:30:50;;;;;;;9.00;6.60;;;2.30;67.80;;;;;;8442858;28;20210;-77
2022/12/09 02:35:12;;;;;;;9.27;5.93;;;2.20;99.90;;;;;;8437071;28;20193;-75
2022/12/09 02:39:13;;;;;;;7.17;5.53;;;2.20;99.90;;;;;;8439817;28;20187;-77
2022/12/09 02:43:16;;;;;;;7.23;5.63;;;2.20;1.00;;;;;;8439069;27;20249;-78
2022/12/09 02:47:20;;;;;;;8.40;5.53;;;2.20;99.90;;;;;;8459762;27;20583;-77
2022/12/09 02:51:25;;;;;;;9.77;6.53;;;2.20;1.00;;;;;;8450821;27;20221;-80
2022/12/09 02:55:27;;;;;;;7.80;5.73;;;2.20;99.90;;;;;;8457610;27;20176;-78
2022/12/09 02:59:28;;;;;;;10.83;7.27;;;2.20;1.00;;;;;;8455467;27;20208;-77
2022/12/09 03:03:32;;;;;;;12.50;7.63;;;2.20;99.90;;;;;;8463150;27;20193;-79
2022/12/09 03:07:48;;;;;;;14.23;9.20;;;2.20;1.00;;;;;;8445218;27;20188;-77
2022/12/09 03:11:50;;;;;;;12.60;9.27;;;2.30;99.90;;;;;;8444381;27;20214;-77
2022/12/09 03:15:59;;;;;;;11.97;9.03;;;2.30;99.90;;;;;;8436794;27;20208;-75
2022/12/09 03:20:05;;;;;;;13.87;9.47;;;2.30;99.90;;;;;;8457463;27;20173;-78
2022/12/09 03:24:09;;;;;;;13.57;9.47;;;2.30;99.90;;;;;;8452528;27;20514;-75
2022/12/09 03:28:23;;;;;;;12.77;9.13;;;2.30;99.90;;;;;;8461534;27;20175;-76
2022/12/09 03:32:26;;;;;;;10.90;8.60;;;2.30;1.00;;;;;;8444139;27;20314;-77
2022/12/09 03:36:36;;;;;;;11.23;8.00;;;2.30;1.00;;;;;;8440855;27;20197;-77
2022/12/09 03:40:37;;;;;;;12.43;8.90;;;2.20;99.90;;;;;;8448780;27;20255;-77
2022/12/09 03:44:53;;;;;;;11.40;8.63;;;2.20;1.00;;;;;;8444744;27;20216;-78
2022/12/09 03:48:56;;;;;;;15.10;9.07;;;2.20;7.30;;;;;;8439833;27;20187;-75
2022/12/09 03:53:04;;;;;;;11.37;8.43;;;2.10;99.90;;;;;;8438081;27;20437;-78
2022/12/09 03:57:10;;;;;;;11.40;8.07;;;2.00;1.00;;;;;;8456274;27;20279;-77
2022/12/09 04:01:11;;;;;;;10.70;8.30;;;2.00;99.90;;;;;;8450141;27;20183;-77
2022/12/09 04:05:12;;;;;;;13.93;9.63;;;2.00;99.90;;;;;;8447503;27;20184;-75
2022/12/09 04:09:13;;;;;;;11.30;8.67;;;2.00;99.90;;;;;;8459027;27;20237;-80
2022/12/09 04:13:14;;;;;;;13.00;8.93;;;2.00;99.90;;;;;;8442543;27;20286;-76
2022/12/09 04:17:15;;;;;;;14.17;8.57;;;2.00;99.90;;;;;;8459395;27;20191;-75
2022/12/09 04:21:16;;;;;;;10.97;7.87;;;2.00;99.90;;;;;;8438396;27;20190;-78
2022/12/09 04:25:17;;;;;;;12.40;8.43;;;2.00;99.90;;;;;;8448566;27;20183;-77
2022/12/09 04:29:18;;;;;;;12.17;8.70;;;2.10;99.90;;;;;;8448287;27;20188;-76
2022/12/09 04:33:18;;;;;;;12.13;8.73;;;2.10;99.90;;;;;;8456799;27;20265;-79
2022/12/09 04:37:19;;;;;;;10.67;7.73;;;2.00;99.90;;;;;;8453831;27;20397;-77
2022/12/09 04:41:20;;;;;;;10.73;8.10;;;2.00;99.90;;;;;;8438786;27;20214;-75
2022/12/09 04:45:21;;;;;;;11.93;7.87;;;2.00;99.90;;;;;;8443919;27;20199;-76
2022/12/09 04:49:22;;;;;;;12.07;8.30;;;2.00;99.90;;;;;;8431813;27;20274;-75
2022/12/09 04:53:23;;;;;;;12.60;8.57;;;2.00;99.90;;;;;;8441163;27;20214;-77
2022/12/09 04:57:23;;;;;;;11.37;8.23;;;2.00;99.90;;;;;;8446106;27;20505;-78
2022/12/09 05:01:24;;;;;;;11.17;7.77;;;2.00;99.90;;;;;;8441565;27;20253;-76
2022/12/09 05:05:25;;;;;;;12.90;8.47;;;2.00;99.90;;;;;;8438930;27;20187;-78
2022/12/09 05:09:26;;;;;;;16.37;9.20;;;2.00;99.90;;;;;;8441387;27;20239;-77
2022/12/09 05:13:27;;;;;;;19.67;10.80;;;2.00;99.90;;;;;;8442644;27;20214;-79
2022/12/09 05:17:28;;;;;;;21.37;12.97;;;2.00;99.90;;;;;;8435025;27;20186;-76
2022/12/09 05:21:29;;;;;;;20.87;12.87;;;2.00;99.90;;;;;;8437416;27;20194;-78
2022/12/09 05:25:29;;;;;;;31.30;19.60;;;1.90;99.90;;;;;;8426281;27;20187;-79
2022/12/09 05:29:30;;;;;;;22.30;14.20;;;2.00;1.00;;;;;;8458653;27;20183;-76
2022/12/09 05:33:31;;;;;;;16.67;10.67;;;2.00;1.00;;;;;;8436832;27;20322;-76
2022/12/09 05:37:32;;;;;;;19.10;10.80;;;2.00;1.00;;;;;;8436510;27;20278;-76
2022/12/09 05:41:33;;;;;;;13.13;8.93;;;2.00;1.00;;;;;;8439326;27;20192;-77
2022/12/09 05:45:34;;;;;;;13.87;8.70;;;1.90;1.00;;;;;;8437813;28;20256;-77
2022/12/09 05:49:37;;;;;;;16.30;10.07;;;1.90;1.00;;;;;;8421175;28;20184;-75
2022/12/09 05:53:38;;;;;;;19.90;10.10;;;1.90;1.00;;;;;;8420546;28;20239;-77
2022/12/09 05:57:39;;;;;;;20.60;13.47;;;1.90;1.00;;;;;;8450597;28;20218;-76
2022/12/09 06:01:40;;;;;;;42.27;19.57;;;1.90;1.00;;;;;;8429194;28;20191;-77
2022/12/09 06:05:41;;;;;;;28.37;15.97;;;1.90;1.00;;;;;;8443394;28;20187;-78
2022/12/09 06:09:43;;;;;;;32.40;15.97;;;1.80;1.00;;;;;;8438560;28;20179;-76
2022/12/09 06:13:45;;;;;;;24.40;14.07;;;1.80;1.00;;;;;;8438921;28;20208;-75
2022/12/09 06:17:46;;;;;;;19.80;10.63;;;1.70;1.00;;;;;;8435560;27;20181;-77
2022/12/09 06:21:46;;;;;;;13.40;9.27;;;1.70;1.00;;;;;;8447277;27;20202;-77
2022/12/09 06:25:47;;;;;;;13.17;8.60;;;1.60;1.00;;;;;;8470876;27;20279;-77
2022/12/09 06:29:48;;;;;;;18.43;10.87;;;1.60;1.00;;;;;;8443360;27;20501;-75
2022/12/09 06:33:49;;;;;;;19.70;13.97;;;1.60;1.00;;;;;;8437542;27;20214;-77
2022/12/09 06:37:52;;;;;;;20.13;13.07;;;1.60;2.80;;;;;;8439645;27;20179;-78
2022/12/09 06:41:52;;;;;;;15.53;10.20;;;1.60;32.10;;;;;;8440467;27;20292;-76
2022/12/09 06:45:53;;;;;;;10.93;8.20;;;1.60;59.10;;;;;;8443993;27;20321;-77
2022/12/09 06:49:56;;;;;;;13.77;9.83;;;1.50;99.90;;;;;;8437553;27;20187;-75
2022/12/09 06:53:57;;;;;;;17.23;10.60;;;1.60;99.90;;;;;;8437270;27;20220;-78
2022/12/09 06:57:58;;;;;;;16.50;10.40;;;1.60;99.90;;;;;;8433926;27;20200;-75
2022/12/09 07:01:59;;;;;;;30.83;15.47;;;1.60;99.90;;;;;;8442533;27;20183;-75
2022/12/09 07:06:01;;;;;;;37.77;17.43;;;1.60;99.90;;;;;;8442873;27;20573;-77
2022/12/09 07:10:07;;;;;;;50.03;23.93;;;1.60;99.90;;;;;;8448291;27;20189;-79
2022/12/09 07:14:09;;;;;;;47.47;24.37;;;1.60;99.90;;;;;;8456298;27;20210;-78
2022/12/09 07:18:10;;;;;;;36.10;18.23;;;1.60;99.90;;;;;;8439690;27;20175;-75
2022/12/09 07:22:11;;;;;;;33.83;16.57;;;1.60;99.90;;;;;;8464349;27;20187;-78
2022/12/09 07:26:12;;;;;;;38.47;17.50;;;1.60;99.90;;;;;;8442512;27;20312;-78
2022/12/09 07:30:13;;;;;;;29.53;15.87;;;1.70;99.90;;;;;;8455255;27;20265;-79
2022/12/09 07:34:14;;;;;;;29.33;14.70;;;1.70;99.90;;;;;;8446890;27;20263;-75
2022/12/09 07:38:15;;;;;;;20.93;14.07;;;1.70;99.90;;;;;;8438839;27;20181;-76
2022/12/09 07:42:16;;;;;;;21.90;13.57;;;1.80;99.90;;;;;;8456479;27;20194;-74
2022/12/09 07:46:20;;;;;;;18.67;12.97;;;1.80;99.90;;;;;;8444740;27;20211;-78
2022/12/09 07:50:21;;;;;;;22.93;14.57;;;1.80;99.90;;;;;;8441808;27;20179;-77
2022/12/09 07:54:21;;;;;;;22.70;13.57;;;1.90;99.90;;;;;;8449965;27;20268;-78
2022/12/09 07:58:22;;;;;;;26.13;14.63;;;1.90;99.90;;;;;;8445377;27;20195;-75
2022/12/09 08:02:23;;;;;;;21.97;13.97;;;1.90;99.90;;;;;;8437711;27;20183;-79
2022/12/09 08:06:27;;;;;;;20.60;12.40;;;1.90;99.90;;;;;;8451126;27;20191;-77
2022/12/09 08:10:27;;;;;;;22.10;15.33;;;2.00;99.90;;;;;;8460685;27;20195;-80
2022/12/09 08:14:28;;;;;;;36.20;20.90;;;2.00;90.80;;;;;;8448322;27;20188;-77
2022/12/09 08:18:29;;;;;;;31.30;17.73;;;2.00;75.10;;;;;;8440039;27;20230;-79
2022/12/09 08:22:30;;;;;;;23.30;14.80;;;2.10;89.50;;;;;;8439903;27;20188;-75
2022/12/09 08:26:31;;;;;;;23.73;15.00;;;2.10;37.80;;;;;;8434972;27;20186;-78
2022/12/09 08:30:32;;;;;;;23.10;15.07;;;2.10;1.00;;;;;;8454439;27;20195;-75
2022/12/09 08:34:33;;;;;;;20.57;14.00;;;2.10;1.00;;;;;;8439876;27;20210;-76
2022/12/09 08:38:34;;;;;;;20.80;14.80;;;2.10;1.00;;;;;;8438923;27;20172;-77
2022/12/09 08:42:35;;;;;;;19.47;13.23;;;2.10;1.00;;;;;;8444595;27;20211;-78
2022/12/09 08:46:38;;;;;;;21.87;14.27;;;2.10;1.00;;;;;;8427866;27;20271;-77
2022/12/09 08:50:39;;;;;;;20.77;14.13;;;2.10;1.00;;;;;;8415881;27;20180;-75
2022/12/09 08:54:40;;;;;;;23.90;15.03;;;2.10;1.00;;;;;;8435846;27;20416;-75
2022/12/09 08:58:41;;;;;;;19.60;13.27;;;2.10;99.90;;;;;;8440722;27;20203;-75
2022/12/09 09:02:42;;;;;;;20.43;14.60;;;2.10;99.90;;;;;;8437052;27;20193;-77
2022/12/09 09:06:46;;;;;;;21.40;14.80;;;2.10;99.90;;;;;;8439215;27;20360;-77
2022/12/09 09:10:46;;;;;;;21.13;14.10;;;2.20;99.90;;;;;;8441005;27;20195;-77
2022/12/09 09:14:47;;;;;;;20.47;14.03;;;2.30;99.90;;;;;;8443644;27;20293;-77
2022/12/09 09:18:49;;;;;;;19.17;13.47;;;2.30;63.60;;;;;;8445618;27;20172;-75
2022/12/09 09:22:50;;;;;;;18.97;13.10;;;2.40;1.00;;;;;;8439514;27;20186;-77
2022/12/09 09:26:52;;;;;;;20.37;13.87;;;2.50;19.10;;;;;;8440272;27;20184;-77
2022/12/09 09:31:00;;;;;;;21.63;15.27;;;2.60;1.00;;;;;;8426836;27;20216;-75
2022/12/09 09:35:01;;;;;;;26.37;17.80;;;2.70;1.00;;;;;;8442866;27;20190;-79
2022/12/09 09:39:02;;;;;;;26.27;17.53;;;2.80;99.90;;;;;;8440426;27;20178;-76
2022/12/09 09:43:03;;;;;;;42.27;25.67;;;3.00;1.00;;;;;;8432290;27;20178;-78
2022/12/09 09:47:16;;;;;;;59.47;34.93;;;3.10;99.90;;;;;;8446088;28;20199;-79
2022/12/09 09:51:19;;;;;;;62.93;36.67;;;3.20;71.20;;;;;;8461421;27;20210;-77
2022/12/09 09:55:32;;;;;;;45.77;29.33;;;3.20;53.90;;;;;;8451546;27;20175;-78
2022/12/09 09:59:42;;;;;;;31.63;21.97;;;3.30;99.90;;;;;;8440653;27;20195;-75
2022/12/09 10:04:19;;;;;;;28.97;19.30;;;3.40;1.00;;;;;;8432959;27;20194;-75
2022/12/09 10:08:38;;;;;;;48.90;26.00;;;3.40;99.90;;;;;;8461146;27;20183;-77
2022/12/09 10:13:02;;;;;;;34.80;22.60;;;3.50;99.90;;;;;;8450378;27;20199;-78
2022/12/09 10:17:27;;;;;;;30.27;19.93;;;3.60;1.00;;;;;;8435082;27;20180;-76
2022/12/09 10:21:30;;;;;;;36.43;24.03;;;3.60;1.00;;;;;;8447515;27;20188;-79
2022/12/09 10:25:34;;;;;;;42.00;28.50;;;3.70;1.00;;;;;;8443972;27;20224;-78
2022/12/09 10:29:38;;;;;;;40.00;26.67;;;3.90;99.90;;;;;;8435410;27;20184;-78
2022/12/09 10:33:39;;;;;;;34.73;21.70;;;4.10;99.90;;;;;;8449546;27;20299;-78
2022/12/09 10:37:40;;;;;;;26.23;17.30;;;4.40;71.80;;;;;;8456305;27;20184;-78
2022/12/09 10:46:20;;;;;;;27.87;18.03;;;4.40;99.90;;;;;;8464108;27;20194;-75
2022/12/09 10:50:31;;;;;;;25.87;16.17;;;4.60;99.90;;;;;;8429788;27;20577;-75
2022/12/09 10:54:36;;;;;;;24.93;17.03;;;4.80;99.90;;;;;;8429179;27;20196;-75
2022/12/09 10:58:37;;;;;;;23.27;15.70;;;4.80;99.90;;;;;;8444076;27;20196;-76
2022/12/09 11:02:50;;;;;;;26.63;17.07;;;4.80;99.90;;;;;;8448783;27;20207;-77
2022/12/09 11:06:52;;;;;;;30.13;19.63;;;4.90;99.90;;;;;;8444185;27;20191;-79
2022/12/09 11:10:53;;;;;;;32.57;18.73;;;5.00;95.30;;;;;;8441189;27;20212;-78
2022/12/09 11:15:00;;;;;;;23.47;15.73;;;5.10;47.80;;;;;;8432384;27;20192;-75
2022/12/09 11:19:01;;;;;;;22.87;16.07;;;5.20;1.00;;;;;;8444228;27;20180;-77
2022/12/09 11:23:16;;;;;;;20.30;13.43;;;5.10;1.00;;;;;;8437883;27;20183;-78
2022/12/09 11:27:32;;;;;;;33.00;16.77;;;4.90;1.00;;;;;;8429332;27;20200;-77
2022/12/09 11:31:38;;;;;;;26.23;16.53;;;4.70;41.60;;;;;;8429000;27;20207;-79
2022/12/09 11:35:52;;;;;;;33.80;19.93;;;4.70;59.00;;;;;;8461588;27;20186;-76
2022/12/09 11:39:53;;;;;;;30.53;19.13;;;4.60;99.90;;;;;;8434506;27;20172;-75
2022/12/09 11:43:56;;;;;;;31.90;18.23;;;4.60;99.90;;;;;;8427854;27;20232;-77
2022/12/09 11:48:04;;;;;;;22.10;14.83;;;4.50;99.90;;;;;;8427661;27;20179;-75
2022/12/09 11:52:25;;;;;;;22.03;15.07;;;4.50;90.60;;;;;;8442464;27;20192;-79
2022/12/09 11:56:28;;;;;;;21.20;13.63;;;4.40;33.80;;;;;;8439835;27;20246;-78
2022/12/09 12:00:49;;;;;;;27.90;18.67;;;4.40;1.00;;;;;;8445271;27;20194;-79
2022/12/09 12:05:17;;;;;;;22.03;16.03;;;4.40;12.90;;;;;;8333386;28;20217;-76
2022/12/09 12:09:26;;;;;;;31.97;20.03;;;4.30;4.50;;;;;;8375685;28;20558;-75
2022/12/09 12:13:39;;;;;;;22.07;15.03;;;4.30;1.00;;;;;;8370532;28;20324;-75
2022/12/09 12:17:49;;;;;;;24.67;16.73;;;4.30;1.00;;;;;;8367331;28;20213;-77
2022/12/09 12:21:52;;;;;;;20.77;13.40;;;4.30;1.00;;;;;;8372141;28;20177;-77
2022/12/09 12:26:24;;;;;;;18.97;12.20;;;4.20;1.00;;;;;;8372919;28;20188;-74
2022/12/09 12:30:41;;;;;;;22.50;13.30;;;4.10;1.00;;;;;;8367814;28;20213;-77
2022/12/09 12:34:50;;;;;;;18.90;11.13;;;4.10;1.00;;;;;;8366499;28;20201;-77
2022/12/09 12:39:12;;;;;;;24.60;15.47;;;4.00;1.00;;;;;;8370477;28;20173;-76
2022/12/09 12:48:39;;;;;;;19.57;12.47;;;4.10;16.40;;;;;;8367743;28;20292;-74
2022/12/09 12:53:03;;;;;;;18.73;13.37;;;4.10;1.00;;;;;;8353522;28;20220;-78
2022/12/09 12:57:41;;;;;;;20.87;13.53;;;4.10;1.00;;;;;;8380352;28;20228;-77
2022/12/09 13:01:51;;;;;;;19.63;13.90;;;4.10;14.10;;;;;;8377339;28;20248;-78
2022/12/09 13:05:55;;;;;;;18.03;12.13;;;4.10;11.90;;;;;;8368557;28;20182;-77
2022/12/09 13:10:13;;;;;;;23.57;15.97;;;4.20;1.00;;;;;;8374399;28;20182;-75
2022/12/09 13:14:21;;;;;;;17.77;13.47;;;4.30;6.60;;;;;;8376584;28;20238;-74
2022/12/09 13:18:30;;;;;;;22.23;14.40;;;4.40;1.00;;;;;;8366481;28;20185;-78
2022/12/09 13:22:52;;;;;;;22.40;14.30;;;4.30;1.00;;;;;;8371171;28;20213;-77
2022/12/09 13:26:53;;;;;;;36.73;19.10;;;4.40;1.00;;;;;;8366923;28;20187;-77
2022/12/09 13:30:57;;;;;;;48.70;21.33;;;4.50;1.00;;;;;;8368343;28;20236;-78
2022/12/09 13:35:09;;;;;;;19.67;12.37;;;4.40;1.00;;;;;;8373613;28;20221;-76
2022/12/09 13:39:12;;;;;;;21.80;13.97;;;4.40;1.00;;;;;;8373518;28;20273;-78
2022/12/09 13:43:23;;;;;;;25.00;16.43;;;4.30;1.00;;;;;;8367998;28;20190;-77
2022/12/09 13:47:27;;;;;;;25.83;16.80;;;4.20;1.00;;;;;;8370988;28;20178;-78
2022/12/09 13:51:44;;;;;;;22.23;14.80;;;4.00;37.80;;;;;;8371613;28;20198;-76
2022/12/09 13:55:58;;;;;;;28.33;18.30;;;3.80;99.90;;;;;;8381440;28;20234;-75
2022/12/09 14:00:04;;;;;;;28.27;18.27;;;3.60;99.90;;;;;;8364563;28;20194;-78
2022/12/09 14:04:28;;;;;;;25.90;16.23;;;3.50;99.90;;;;;;8371433;28;20182;-75
2022/12/09 14:08:35;;;;;;;27.47;17.00;;;3.40;99.90;;;;;;8366028;28;20268;-79
2022/12/09 14:12:40;;;;;;;30.80;18.37;;;3.30;99.90;;;;;;8371266;28;20205;-78
2022/12/09 14:16:42;;;;;;;33.70;20.83;;;3.30;99.90;;;;;;8372816;28;20523;-76
2022/12/09 14:21:03;;;;;;;41.47;23.20;;;3.20;99.90;;;;;;8364623;28;20178;-78
2022/12/09 14:25:27;;;;;;;30.47;17.90;;;3.10;99.90;;;;;;8364690;28;20182;-76
2022/12/09 14:29:50;;;;;;;39.93;20.57;;;3.00;99.90;;;;;;8368190;28;20185;-77
2022/12/09 14:33:51;;;;;;;44.03;25.20;;;3.00;99.90;;;;;;8363087;28;20226;-77
2022/12/09 14:38:07;;;;;;;42.87;23.07;;;2.90;99.90;;;;;;8369271;28;20174;-75
2022/12/09 14:42:28;;;;;;;20.80;13.50;;;2.90;99.90;;;;;;8376812;28;20205;-77
2022/12/09 14:46:32;;;;;;;52.57;25.90;;;2.80;99.90;;;;;;8373147;28;20196;-76
2022/12/09 14:50:37;;;;;;;33.30;18.97;;;2.80;99.90;;;;;;8370385;28;20191;-75
2022/12/09 14:54:44;;;;;;;30.47;18.67;;;2.70;1.00;;;;;;8382457;28;20194;-77
2022/12/09 14:58:48;;;;;;;50.23;27.97;;;2.60;1.00;;;;;;8374371;28;20225;-76
2022/12/09 15:02:51;;;;;;;49.53;25.90;;;2.50;1.00;;;;;;8368557;28;20200;-74
2022/12/09 15:07:12;;;;;;;46.40;25.50;;;2.40;1.00;;;;;;8374039;28;20255;-78
2022/12/09 15:11:20;;;;;;;65.67;29.30;;;2.40;13.10;;;;;;8382826;28;20209;-73
2022/12/09 15:15:30;;;;;;;70.53;28.93;;;2.30;29.10;;;;;;8371661;28;20276;-77
2022/12/09 15:19:31;;;;;;;51.17;26.73;;;2.30;80.70;;;;;;8372590;28;20186;-75
2022/12/09 15:23:40;;;;;;;52.03;27.80;;;2.20;75.80;;;;;;8368457;28;20193;-74
2022/12/09 15:27:40;;;;;;;112.03;50.43;;;2.10;99.90;;;;;;8369610;28;20208;-73
2022/12/09 15:31:48;;;;;;;67.77;39.03;;;2.00;99.90;;;;;;8369391;28;20209;-76
2022/12/09 15:36:00;;;;;;;74.67;41.33;;;1.90;1.00;;;;;;8371502;28;20209;-76
2022/12/09 15:40:08;;;;;;;69.13;37.50;;;2.00;1.00;;;;;;8373845;28;20188;-79
2022/12/09 15:44:14;;;;;;;57.07;34.27;;;2.00;1.00;;;;;;8371930;28;20224;-75
2022/12/09 15:48:19;;;;;;;50.30;30.57;;;2.00;1.00;;;;;;8366161;28;20206;-79
2022/12/09 15:52:26;;;;;;;43.00;26.30;;;2.00;1.00;;;;;;8383067;28;20213;-77
2022/12/09 15:56:58;;;;;;;49.47;30.53;;;2.00;1.00;;;;;;8367079;28;20189;-78
2022/12/09 16:01:01;;;;;;;55.67;33.60;;;2.00;1.00;;;;;;8368491;28;20173;-76
2022/12/09 16:05:05;;;;;;;75.70;38.53;;;2.00;1.00;;;;;;8355949;28;20188;-79
2022/12/09 16:09:14;;;;;;;56.43;32.53;;;2.00;1.00;;;;;;8366481;28;20182;-76
2022/12/09 16:13:18;;;;;;;55.83;31.97;;;2.00;1.00;;;;;;8373182;28;20205;-75
2022/12/09 16:17:22;;;;;;;59.27;35.73;;;2.00;1.00;;;;;;8364910;28;20189;-75
2022/12/09 16:21:36;;;;;;;60.20;36.33;;;2.00;1.00;;;;;;8368950;28;20188;-77
2022/12/09 16:25:47;;;;;;;50.00;29.80;;;2.00;1.00;;;;;;8367640;28;20224;-75
2022/12/09 16:29:52;;;;;;;52.20;31.70;;;2.00;1.00;;;;;;8385283;28;20186;-76
2022/12/09 16:33:53;;;;;;;58.53;33.20;;;1.90;1.00;;;;;;8372108;28;20213;-78
2022/12/09 16:37:57;;;;;;;52.07;33.17;;;2.00;1.00;;;;;;8369610;28;20184;-78
2022/12/09 16:42:00;;;;;;;57.60;33.93;;;2.00;1.00;;;;;;8374802;28;20189;-74
2022/12/09 16:46:39;;;;;;;43.63;27.93;;;2.00;4.30;;;;;;8366610;28;20279;-76
2022/12/09 16:51:02;;;;;;;45.37;27.10;;;2.00;1.00;;;;;;8366819;28;20197;-74
2022/12/09 16:55:15;;;;;;;53.00;29.30;;;2.00;1.00;;;;;;8380826;28;20235;-75
2022/12/09 16:59:16;;;;;;;40.73;25.03;;;2.00;54.70;;;;;;8371519;28;20205;-77
2022/12/09 17:03:52;;;;;;;47.43;28.13;;;2.00;1.00;;;;;;8365101;28;20189;-75
2022/12/09 17:07:53;;;;;;;69.73;37.60;;;2.00;1.00;;;;;;8354456;28;20245;-75
2022/12/09 17:11:54;;;;;;;57.73;31.73;;;1.90;1.00;;;;;;8368082;28;20231;-78
2022/12/09 17:15:57;;;;;;;41.03;24.87;;;1.90;78.80;;;;;;8371577;28;20641;-76
2022/12/09 17:19:58;;;;;;;48.00;27.30;;;1.90;99.90;;;;;;8364846;28;20252;-76
2022/12/09 17:23:59;;;;;;;84.63;42.77;;;1.90;99.90;;;;;;8364602;28;20197;-77
2022/12/09 17:28:04;;;;;;;52.23;30.67;;;1.90;1.00;;;;;;8365813;28;20192;-75
2022/12/09 17:32:05;;;;;;;58.17;34.43;;;1.90;1.00;;;;;;8368414;28;20213;-75
2022/12/09 17:36:07;;;;;;;51.93;30.73;;;1.90;4.10;;;;;;8364247;28;20211;-78
2022/12/09 17:40:09;;;;;;;62.13;32.30;;;1.90;1.00;;;;;;8369641;28;20205;-75
2022/12/09 17:44:10;;;;;;;50.73;29.87;;;1.90;99.90;;;;;;8368269;28;20192;-78
2022/12/09 17:48:11;;;;;;;64.93;35.43;;;1.90;72.30;;;;;;8369952;28;20186;-80
2022/12/09 17:52:13;;;;;;;61.10;34.53;;;1.80;99.90;;;;;;8364354;28;20197;-77
2022/12/09 17:56:19;;;;;;;57.63;30.70;;;1.80;99.90;;;;;;8368186;28;20186;-78
2022/12/09 18:00:20;;;;;;;63.53;33.73;;;1.80;99.90;;;;;;8370602;28;20205;-80
2022/12/09 18:04:21;;;;;;;78.13;45.93;;;1.80;1.00;;;;;;8370329;28;20189;-80
2022/12/09 18:08:22;;;;;;;72.03;37.63;;;1.80;1.00;;;;;;8372482;28;20558;-76
2022/12/09 18:12:23;;;;;;;65.60;35.10;;;1.80;99.90;;;;;;8371847;28;20213;-76
2022/12/09 18:16:23;;;;;;;64.97;31.27;;;1.80;99.90;;;;;;8380103;28;20192;-79
2022/12/09 18:20:24;;;;;;;67.83;34.60;;;1.70;99.90;;;;;;8381009;28;20216;-80
2022/12/09 18:24:26;;;;;;;53.43;29.63;;;1.70;99.90;;;;;;8380459;28;20189;-80
2022/12/09 18:28:29;;;;;;;53.47;30.57;;;1.70;99.90;;;;;;8379065;28;20185;-77
2022/12/09 18:32:30;;;;;;;72.70;40.53;;;1.60;99.90;;;;;;8370356;28;20303;-77
2022/12/09 18:36:34;;;;;;;63.27;32.47;;;1.60;99.90;;;;;;8371331;28;20192;-79
2022/12/09 18:40:59;;;;;;;62.57;33.20;;;1.50;1.00;;;;;;8374465;28;20251;-77
2022/12/09 18:44:59;;;;;;;65.03;35.97;;;1.50;1.00;;;;;;8374447;28;20215;-76
2022/12/09 18:49:11;;;;;;;60.20;33.47;;;1.50;1.00;;;;;;8373317;28;20227;-76
2022/12/09 18:53:11;;;;;;;52.70;28.57;;;1.50;1.00;;;;;;8376749;28;20213;-75
2022/12/09 18:57:13;;;;;;;62.50;33.40;;;1.50;1.00;;;;;;8374254;28;20204;-75
2022/12/09 19:01:22;;;;;;;68.13;35.47;;;1.40;1.00;;;;;;8365671;28;20189;-76
2022/12/09 19:05:25;;;;;;;65.90;36.30;;;1.40;37.40;;;;;;8379206;28;20194;-78
2022/12/09 19:09:33;;;;;;;100.43;44.10;;;1.40;99.90;;;;;;8373181;28;20317;-74
2022/12/09 19:13:34;;;;;;;68.23;36.93;;;1.30;1.00;;;;;;8380442;28;20230;-78
2022/12/09 19:17:38;;;;;;;63.17;34.53;;;1.30;99.90;;;;;;8371943;28;20178;-79
2022/12/09 19:21:40;;;;;;;61.43;32.13;;;1.40;1.00;;;;;;8378863;28;20189;-76
2022/12/09 19:25:41;;;;;;;69.97;35.50;;;1.40;99.90;;;;;;8375915;28;20299;-79
2022/12/09 19:29:42;;;;;;;68.17;34.10;;;1.30;1.00;;;;;;8369545;28;20197;-80
2022/12/09 19:33:43;;;;;;;51.17;27.70;;;1.30;9.10;;;;;;8373221;28;20266;-79
2022/12/09 19:37:44;;;;;;;51.00;27.93;;;1.20;99.90;;;;;;8369213;28;20224;-80
2022/12/09 19:41:45;;;;;;;50.70;27.73;;;1.20;99.90;;;;;;8372979;28;20189;-77
2022/12/09 19:45:46;;;;;;;77.10;38.40;;;1.20;99.90;;;;;;8374187;28;20185;-78
2022/12/09 19:49:47;;;;;;;54.53;31.17;;;1.10;99.90;;;;;;8372293;28;20228;-75
2022/12/09 19:53:48;;;;;;;71.13;34.87;;;1.10;1.00;;;;;;8378369;28;20296;-78
2022/12/09 19:57:49;;;;;;;79.43;39.83;;;1.10;45.20;;;;;;8371621;28;20270;-78
2022/12/09 20:01:50;;;;;;;82.00;38.73;;;1.10;99.90;;;;;;8368027;28;20195;-76
2022/12/09 20:05:54;;;;;;;53.57;28.00;;;1.10;1.00;;;;;;8371385;28;20273;-76
2022/12/09 20:09:55;;;;;;;56.17;30.97;;;1.10;99.90;;;;;;8369817;28;20208;-78
2022/12/09 20:13:57;;;;;;;61.73;34.73;;;1.10;99.90;;;;;;8376604;28;20220;-74
2022/12/09 20:17:58;;;;;;;55.57;30.70;;;1.10;99.90;;;;;;8366733;28;20182;-78
2022/12/09 20:21:59;;;;;;;53.20;27.67;;;1.10;99.90;;;;;;8371662;28;20273;-79
2022/12/09 20:26:12;;;;;;;57.17;31.10;;;1.10;99.90;;;;;;8365794;28;20189;-79
2022/12/09 20:30:13;;;;;;;74.23;33.53;;;1.10;1.00;;;;;;8372900;28;20189;-77
2022/12/09 20:34:15;;;;;;;75.30;37.30;;;1.10;1.00;;;;;;8370821;28;20208;-74
2022/12/09 20:38:16;;;;;;;53.97;30.67;;;1.00;1.00;;;;;;8370755;28;20185;-77
2022/12/09 20:42:17;;;;;;;73.07;33.70;;;1.00;88.80;;;;;;8368381;28;20248;-78
2022/12/09 20:46:24;;;;;;;67.50;30.47;;;1.10;14.60;;;;;;8384403;28;20193;-79
2022/12/09 20:50:25;;;;;;;51.23;29.13;;;1.00;99.90;;;;;;8374829;28;20190;-77
2022/12/09 20:54:26;;;;;;;47.50;27.20;;;1.00;1.00;;;;;;8368948;28;20219;-75
2022/12/09 20:58:27;;;;;;;46.07;24.97;;;1.00;1.00;;;;;;8364152;28;20463;-75
2022/12/09 21:02:28;;;;;;;51.13;26.43;;;1.00;1.00;;;;;;8372331;28;20200;-78
2022/12/09 21:06:32;;;;;;;50.77;27.63;;;1.00;1.00;;;;;;8365064;28;20181;-75
2022/12/09 21:10:33;;;;;;;53.37;28.50;;;1.00;99.90;;;;;;8364700;28;20178;-76
2022/12/09 21:14:35;;;;;;;46.43;26.73;;;1.00;99.90;;;;;;8365503;28;20227;-76
2022/12/09 21:18:36;;;;;;;43.13;24.17;;;1.00;99.90;;;;;;8364483;28;20182;-77